sensor_id;sensor_type;location;lat;lon;timestamp;P1;durP1;ratioP1;P2;durP2;ratioP2
66189;SDS011;52992;52.084;5.412;2022-11-28T00:01:15;19.20;;;9.57;;
66189;SDS011;52992;52.084;5.412;2022-11-28T00:03:48;20.67;;;9.97;;
66189;SDS011;52992;52.084;5.412;2022-11-28T00:06:15;29.03;;;9.63;;
66189;SDS011;52992;52.084;5.412;2022-11-28T00:08:42;20.87;;;10.37;;
66189;SDS011;52992;52.084;5.412;2022-11-28T00:11:10;17.37;;;8.97;;
66189;SDS011;52992;52.084;5.412;2022-11-28T00:13:38;18.13;;;9.67;;
66189;SDS011;52992;52.084;5.412;2022-11-28T00:16:05;21.13;;;9.70;;
66189;SDS011;52992;52.084;5.412;2022-11-28T00:18:34;21.20;;;9.30;;
66189;SDS011;52992;52.084;5.412;2022-11-28T00:21:02;18.30;;;8.93;;
66189;SDS011;52992;52.084;5.412;2022-11-28T00:23:34;19.60;;;9.13;;
66189;SDS011;52992;52.084;5.412;2022-11-28T00:26:02;25.20;;;10.20;;
66189;SDS011;52992;52.084;5.412;2022-11-28T00:28:32;20.03;;;9.50;;
66189;SDS011;52992;52.084;5.412;2022-11-28T00:30:59;19.73;;;9.00;;
66189;SDS011;52992;52.084;5.412;2022-11-28T00:33:26;19.67;;;9.20;;
66189;SDS011;52992;52.084;5.412;2022-11-28T00:35:57;21.00;;;9.60;;
66189;SDS011;52992;52.084;5.412;2022-11-28T00:38:25;21.07;;;9.27;;
66189;SDS011;52992;52.084;5.412;2022-11-28T00:43:42;17.30;;;9.20;;
66189;SDS011;52992;52.084;5.412;2022-11-28T00:46:10;18.63;;;8.93;;
66189;SDS011;52992;52.084;5.412;2022-11-28T00:48:38;16.90;;;9.27;;
66189;SDS011;52992;52.084;5.412;2022-11-28T00:51:09;16.67;;;8.83;;
66189;SDS011;52992;52.084;5.412;2022-11-28T00:53:38;21.67;;;9.93;;
66189;SDS011;52992;52.084;5.412;2022-11-28T00:56:08;19.70;;;9.90;;
66189;SDS011;52992;52.084;5.412;2022-11-28T00:58:37;19.47;;;10.17;;
66189;SDS011;52992;52.084;5.412;2022-11-28T01:01:11;17.57;;;8.70;;
66189;SDS011;52992;52.084;5.412;2022-11-28T01:03:43;19.70;;;9.63;;
66189;SDS011;52992;52.084;5.412;2022-11-28T01:06:11;26.67;;;10.10;;
66189;SDS011;52992;52.084;5.412;2022-11-28T01:08:39;21.43;;;9.87;;
66189;SDS011;52992;52.084;5.412;2022-11-28T01:11:11;21.47;;;9.67;;
66189;SDS011;52992;52.084;5.412;2022-11-28T01:13:39;23.93;;;9.67;;
66189;SDS011;52992;52.084;5.412;2022-11-28T01:16:06;18.93;;;8.87;;
66189;SDS011;52992;52.084;5.412;2022-11-28T01:18:34;24.37;;;8.80;;
66189;SDS011;52992;52.084;5.412;2022-11-28T01:21:01;21.50;;;9.37;;
66189;SDS011;52992;52.084;5.412;2022-11-28T01:23:28;23.70;;;9.80;;
66189;SDS011;52992;52.084;5.412;2022-11-28T01:25:55;19.87;;;8.83;;
66189;SDS011;52992;52.084;5.412;2022-11-28T01:28:22;22.53;;;9.57;;
66189;SDS011;52992;52.084;5.412;2022-11-28T01:30:49;17.57;;;8.90;;
66189;SDS011;52992;52.084;5.412;2022-11-28T01:33:15;23.50;;;9.53;;
66189;SDS011;52992;52.084;5.412;2022-11-28T01:35:45;17.47;;;8.73;;
66189;SDS011;52992;52.084;5.412;2022-11-28T01:38:19;22.30;;;9.53;;
66189;SDS011;52992;52.084;5.412;2022-11-28T01:40:46;20.50;;;9.17;;
66189;SDS011;52992;52.084;5.412;2022-11-28T01:43:13;17.33;;;9.17;;
66189;SDS011;52992;52.084;5.412;2022-11-28T01:45:40;17.07;;;8.10;;
66189;SDS011;52992;52.084;5.412;2022-11-28T01:48:07;18.27;;;9.13;;
66189;SDS011;52992;52.084;5.412;2022-11-28T01:50:39;19.20;;;8.80;;
66189;SDS011;52992;52.084;5.412;2022-11-28T01:53:08;24.33;;;9.57;;
66189;SDS011;52992;52.084;5.412;2022-11-28T01:55:41;20.20;;;9.37;;
66189;SDS011;52992;52.084;5.412;2022-11-28T01:58:13;17.20;;;8.80;;
66189;SDS011;52992;52.084;5.412;2022-11-28T02:00:40;27.23;;;7.40;;
66189;SDS011;52992;52.084;5.412;2022-11-28T02:03:12;21.67;;;9.13;;
66189;SDS011;52992;52.084;5.412;2022-11-28T02:05:46;19.70;;;8.63;;
66189;SDS011;52992;52.084;5.412;2022-11-28T02:08:15;21.40;;;9.00;;
66189;SDS011;52992;52.084;5.412;2022-11-28T02:13:20;21.00;;;9.10;;
66189;SDS011;52992;52.084;5.412;2022-11-28T02:16:08;15.57;;;8.20;;
66189;SDS011;52992;52.084;5.412;2022-11-28T02:24:50;18.07;;;7.37;;
66189;SDS011;52992;52.084;5.412;2022-11-28T02:27:22;19.27;;;8.80;;
66189;SDS011;52992;52.084;5.412;2022-11-28T02:30:17;18.60;;;7.83;;
66189;SDS011;52992;52.084;5.412;2022-11-28T02:38:16;16.80;;;8.50;;
66189;SDS011;52992;52.084;5.412;2022-11-28T02:43:52;20.07;;;8.30;;
66189;SDS011;52992;52.084;5.412;2022-11-28T02:46:50;17.90;;;8.27;;
66189;SDS011;52992;52.084;5.412;2022-11-28T02:49:34;15.90;;;8.07;;
66189;SDS011;52992;52.084;5.412;2022-11-28T02:52:14;16.90;;;7.53;;
66189;SDS011;52992;52.084;5.412;2022-11-28T02:54:45;17.77;;;7.67;;
66189;SDS011;52992;52.084;5.412;2022-11-28T02:57:14;14.60;;;7.30;;
66189;SDS011;52992;52.084;5.412;2022-11-28T03:02:29;15.80;;;7.93;;
66189;SDS011;52992;52.084;5.412;2022-11-28T03:13:40;16.83;;;7.70;;
66189;SDS011;52992;52.084;5.412;2022-11-28T03:16:29;18.07;;;7.60;;
66189;SDS011;52992;52.084;5.412;2022-11-28T03:19:08;19.83;;;7.17;;
66189;SDS011;52992;52.084;5.412;2022-11-28T03:21:44;17.23;;;7.00;;
66189;SDS011;52992;52.084;5.412;2022-11-28T03:24:21;17.87;;;7.00;;
66189;SDS011;52992;52.084;5.412;2022-11-28T03:26:54;18.20;;;7.10;;
66189;SDS011;52992;52.084;5.412;2022-11-28T03:29:43;12.07;;;6.87;;
66189;SDS011;52992;52.084;5.412;2022-11-28T03:32:19;20.67;;;7.40;;
66189;SDS011;52992;52.084;5.412;2022-11-28T03:34:55;15.47;;;8.17;;
66189;SDS011;52992;52.084;5.412;2022-11-28T03:37:29;15.80;;;7.13;;
66189;SDS011;52992;52.084;5.412;2022-11-28T03:40:02;15.73;;;7.37;;
66189;SDS011;52992;52.084;5.412;2022-11-28T03:42:34;25.43;;;8.37;;
66189;SDS011;52992;52.084;5.412;2022-11-28T03:47:42;13.40;;;7.70;;
66189;SDS011;52992;52.084;5.412;2022-11-28T03:50:16;17.60;;;7.90;;
66189;SDS011;52992;52.084;5.412;2022-11-28T03:52:49;18.47;;;7.70;;
66189;SDS011;52992;52.084;5.412;2022-11-28T03:55:24;18.27;;;7.63;;
66189;SDS011;52992;52.084;5.412;2022-11-28T04:00:58;15.70;;;7.43;;
66189;SDS011;52992;52.084;5.412;2022-11-28T04:09:17;21.77;;;8.30;;
66189;SDS011;52992;52.084;5.412;2022-11-28T04:12:17;16.40;;;7.67;;
66189;SDS011;52992;52.084;5.412;2022-11-28T04:14:52;21.53;;;7.93;;
66189;SDS011;52992;52.084;5.412;2022-11-28T04:17:32;16.50;;;8.40;;
66189;SDS011;52992;52.084;5.412;2022-11-28T04:20:12;20.60;;;7.93;;
66189;SDS011;52992;52.084;5.412;2022-11-28T04:22:47;20.70;;;8.07;;
66189;SDS011;52992;52.084;5.412;2022-11-28T04:25:19;16.13;;;8.40;;
66189;SDS011;52992;52.084;5.412;2022-11-28T04:27:56;16.30;;;7.87;;
66189;SDS011;52992;52.084;5.412;2022-11-28T04:30:30;16.17;;;7.97;;
66189;SDS011;52992;52.084;5.412;2022-11-28T04:32:59;19.13;;;8.67;;
66189;SDS011;52992;52.084;5.412;2022-11-28T04:35:29;17.13;;;7.97;;
66189;SDS011;52992;52.084;5.412;2022-11-28T04:38:00;14.70;;;7.87;;
66189;SDS011;52992;52.084;5.412;2022-11-28T04:40:31;17.67;;;8.37;;
66189;SDS011;52992;52.084;5.412;2022-11-28T04:43:03;16.13;;;8.37;;
66189;SDS011;52992;52.084;5.412;2022-11-28T04:45:43;20.60;;;9.10;;
66189;SDS011;52992;52.084;5.412;2022-11-28T04:48:14;16.03;;;8.43;;
66189;SDS011;52992;52.084;5.412;2022-11-28T04:50:43;14.97;;;8.40;;
66189;SDS011;52992;52.084;5.412;2022-11-28T04:53:51;24.47;;;8.50;;
66189;SDS011;52992;52.084;5.412;2022-11-28T04:56:20;22.13;;;8.60;;
66189;SDS011;52992;52.084;5.412;2022-11-28T04:58:52;14.17;;;7.93;;
66189;SDS011;52992;52.084;5.412;2022-11-28T05:01:28;17.77;;;8.53;;
66189;SDS011;52992;52.084;5.412;2022-11-28T05:03:57;20.20;;;9.00;;
66189;SDS011;52992;52.084;5.412;2022-11-28T05:06:29;20.37;;;8.50;;
66189;SDS011;52992;52.084;5.412;2022-11-28T05:08:58;18.03;;;8.33;;
66189;SDS011;52992;52.084;5.412;2022-11-28T05:11:25;19.07;;;8.17;;
66189;SDS011;52992;52.084;5.412;2022-11-28T05:13:53;18.43;;;7.70;;
66189;SDS011;52992;52.084;5.412;2022-11-28T05:16:21;17.33;;;8.00;;
66189;SDS011;52992;52.084;5.412;2022-11-28T05:18:48;19.57;;;8.30;;
66189;SDS011;52992;52.084;5.412;2022-11-28T05:21:15;22.23;;;8.00;;
66189;SDS011;52992;52.084;5.412;2022-11-28T05:23:42;20.43;;;8.17;;
66189;SDS011;52992;52.084;5.412;2022-11-28T05:26:11;19.87;;;8.37;;
66189;SDS011;52992;52.084;5.412;2022-11-28T05:28:43;21.23;;;8.50;;
66189;SDS011;52992;52.084;5.412;2022-11-28T05:31:11;15.37;;;8.10;;
66189;SDS011;52992;52.084;5.412;2022-11-28T05:33:39;17.00;;;8.30;;
66189;SDS011;52992;52.084;5.412;2022-11-28T05:36:07;18.23;;;8.67;;
66189;SDS011;52992;52.084;5.412;2022-11-28T05:38:38;19.13;;;7.93;;
66189;SDS011;52992;52.084;5.412;2022-11-28T05:41:06;20.17;;;8.43;;
66189;SDS011;52992;52.084;5.412;2022-11-28T05:43:33;13.00;;;7.50;;
66189;SDS011;52992;52.084;5.412;2022-11-28T05:46:02;22.13;;;8.50;;
66189;SDS011;52992;52.084;5.412;2022-11-28T05:48:31;17.77;;;8.20;;
66189;SDS011;52992;52.084;5.412;2022-11-28T05:50:58;16.67;;;7.93;;
66189;SDS011;52992;52.084;5.412;2022-11-28T05:53:25;19.10;;;7.60;;
66189;SDS011;52992;52.084;5.412;2022-11-28T05:55:51;17.43;;;8.03;;
66189;SDS011;52992;52.084;5.412;2022-11-28T05:58:18;16.87;;;8.53;;
66189;SDS011;52992;52.084;5.412;2022-11-28T06:00:45;20.73;;;8.17;;
66189;SDS011;52992;52.084;5.412;2022-11-28T06:03:12;19.57;;;8.53;;
66189;SDS011;52992;52.084;5.412;2022-11-28T06:05:39;16.80;;;8.07;;
66189;SDS011;52992;52.084;5.412;2022-11-28T06:08:10;18.30;;;8.73;;
66189;SDS011;52992;52.084;5.412;2022-11-28T06:10:37;22.20;;;8.80;;
66189;SDS011;52992;52.084;5.412;2022-11-28T06:13:04;18.73;;;10.30;;
66189;SDS011;52992;52.084;5.412;2022-11-28T06:15:31;17.50;;;8.27;;
66189;SDS011;52992;52.084;5.412;2022-11-28T06:18:03;15.43;;;8.53;;
66189;SDS011;52992;52.084;5.412;2022-11-28T06:20:30;20.50;;;8.53;;
66189;SDS011;52992;52.084;5.412;2022-11-28T06:22:57;18.90;;;8.40;;
66189;SDS011;52992;52.084;5.412;2022-11-28T06:25:24;21.13;;;8.53;;
66189;SDS011;52992;52.084;5.412;2022-11-28T06:27:50;16.47;;;7.77;;
66189;SDS011;52992;52.084;5.412;2022-11-28T06:30:17;19.47;;;8.90;;
66189;SDS011;52992;52.084;5.412;2022-11-28T06:32:44;18.17;;;8.87;;
66189;SDS011;52992;52.084;5.412;2022-11-28T06:35:11;17.50;;;8.90;;
66189;SDS011;52992;52.084;5.412;2022-11-28T06:37:38;20.40;;;8.57;;
66189;SDS011;52992;52.084;5.412;2022-11-28T06:40:05;20.03;;;8.43;;
66189;SDS011;52992;52.084;5.412;2022-11-28T06:42:34;16.13;;;8.10;;
66189;SDS011;52992;52.084;5.412;2022-11-28T06:45:02;20.73;;;8.67;;
66189;SDS011;52992;52.084;5.412;2022-11-28T06:47:29;18.23;;;8.20;;
66189;SDS011;52992;52.084;5.412;2022-11-28T06:49:56;22.83;;;9.10;;
66189;SDS011;52992;52.084;5.412;2022-11-28T06:52:23;15.20;;;8.87;;
66189;SDS011;52992;52.084;5.412;2022-11-28T06:54:50;25.87;;;9.40;;
66189;SDS011;52992;52.084;5.412;2022-11-28T06:57:17;28.23;;;10.23;;
66189;SDS011;52992;52.084;5.412;2022-11-28T06:59:44;26.00;;;10.47;;
66189;SDS011;52992;52.084;5.412;2022-11-28T07:02:10;23.27;;;9.27;;
66189;SDS011;52992;52.084;5.412;2022-11-28T07:04:37;22.60;;;10.23;;
66189;SDS011;52992;52.084;5.412;2022-11-28T07:07:04;24.03;;;9.70;;
66189;SDS011;52992;52.084;5.412;2022-11-28T07:09:31;29.70;;;10.23;;
66189;SDS011;52992;52.084;5.412;2022-11-28T07:11:58;23.73;;;10.17;;
66189;SDS011;52992;52.084;5.412;2022-11-28T07:14:25;26.70;;;11.63;;
66189;SDS011;52992;52.084;5.412;2022-11-28T07:16:51;27.27;;;11.97;;
66189;SDS011;52992;52.084;5.412;2022-11-28T07:19:18;31.30;;;12.07;;
66189;SDS011;52992;52.084;5.412;2022-11-28T07:21:48;26.23;;;10.60;;
66189;SDS011;52992;52.084;5.412;2022-11-28T07:24:16;22.53;;;10.83;;
66189;SDS011;52992;52.084;5.412;2022-11-28T07:26:44;26.40;;;10.10;;
66189;SDS011;52992;52.084;5.412;2022-11-28T07:29:14;25.47;;;9.87;;
66189;SDS011;52992;52.084;5.412;2022-11-28T07:31:42;21.40;;;10.30;;
66189;SDS011;52992;52.084;5.412;2022-11-28T07:34:10;42.77;;;12.27;;
66189;SDS011;52992;52.084;5.412;2022-11-28T07:36:37;39.33;;;12.77;;
66189;SDS011;52992;52.084;5.412;2022-11-28T07:39:04;28.90;;;11.33;;
66189;SDS011;52992;52.084;5.412;2022-11-28T07:41:33;28.90;;;12.83;;
66189;SDS011;52992;52.084;5.412;2022-11-28T07:44:01;25.73;;;12.13;;
66189;SDS011;52992;52.084;5.412;2022-11-28T07:46:29;34.37;;;12.37;;
66189;SDS011;52992;52.084;5.412;2022-11-28T07:48:57;28.03;;;12.00;;
66189;SDS011;52992;52.084;5.412;2022-11-28T07:51:26;34.17;;;13.30;;
66189;SDS011;52992;52.084;5.412;2022-11-28T07:53:58;30.63;;;12.50;;
66189;SDS011;52992;52.084;5.412;2022-11-28T07:56:27;29.10;;;12.40;;
66189;SDS011;52992;52.084;5.412;2022-11-28T07:59:16;30.43;;;13.13;;
66189;SDS011;52992;52.084;5.412;2022-11-28T08:01:42;32.53;;;13.23;;
66189;SDS011;52992;52.084;5.412;2022-11-28T08:04:09;32.13;;;13.57;;
66189;SDS011;52992;52.084;5.412;2022-11-28T08:06:37;38.43;;;14.10;;
66189;SDS011;52992;52.084;5.412;2022-11-28T08:09:07;27.73;;;11.87;;
66189;SDS011;52992;52.084;5.412;2022-11-28T08:11:34;29.03;;;13.00;;
66189;SDS011;52992;52.084;5.412;2022-11-28T08:14:01;30.07;;;13.10;;
66189;SDS011;52992;52.084;5.412;2022-11-28T08:16:28;40.40;;;14.17;;
66189;SDS011;52992;52.084;5.412;2022-11-28T08:18:55;36.97;;;14.17;;
66189;SDS011;52992;52.084;5.412;2022-11-28T08:21:31;33.80;;;13.27;;
66189;SDS011;52992;52.084;5.412;2022-11-28T08:23:59;43.83;;;14.43;;
66189;SDS011;52992;52.084;5.412;2022-11-28T08:26:28;35.20;;;13.97;;
66189;SDS011;52992;52.084;5.412;2022-11-28T08:28:57;34.80;;;13.67;;
66189;SDS011;52992;52.084;5.412;2022-11-28T08:31:26;44.77;;;13.43;;
66189;SDS011;52992;52.084;5.412;2022-11-28T08:33:59;33.67;;;12.43;;
66189;SDS011;52992;52.084;5.412;2022-11-28T08:36:28;33.93;;;12.53;;
66189;SDS011;52992;52.084;5.412;2022-11-28T08:38:55;31.83;;;11.80;;
66189;SDS011;52992;52.084;5.412;2022-11-28T08:41:44;36.47;;;13.20;;
66189;SDS011;52992;52.084;5.412;2022-11-28T08:44:10;31.97;;;11.63;;
66189;SDS011;52992;52.084;5.412;2022-11-28T08:46:38;43.80;;;13.60;;
66189;SDS011;52992;52.084;5.412;2022-11-28T08:49:05;35.73;;;12.07;;
66189;SDS011;52992;52.084;5.412;2022-11-28T08:51:32;35.07;;;13.17;;
66189;SDS011;52992;52.084;5.412;2022-11-28T08:53:59;32.33;;;12.23;;
66189;SDS011;52992;52.084;5.412;2022-11-28T08:56:26;32.43;;;11.90;;
66189;SDS011;52992;52.084;5.412;2022-11-28T08:58:53;33.43;;;12.07;;
66189;SDS011;52992;52.084;5.412;2022-11-28T09:01:22;36.33;;;12.50;;
66189;SDS011;52992;52.084;5.412;2022-11-28T09:03:50;30.30;;;11.23;;
66189;SDS011;52992;52.084;5.412;2022-11-28T09:06:18;34.73;;;12.07;;
66189;SDS011;52992;52.084;5.412;2022-11-28T09:08:46;35.20;;;14.07;;
66189;SDS011;52992;52.084;5.412;2022-11-28T09:11:15;39.00;;;13.60;;
66189;SDS011;52992;52.084;5.412;2022-11-28T09:13:43;37.60;;;13.27;;
66189;SDS011;52992;52.084;5.412;2022-11-28T09:16:10;31.80;;;12.60;;
66189;SDS011;52992;52.084;5.412;2022-11-28T09:18:37;37.33;;;11.77;;
66189;SDS011;52992;52.084;5.412;2022-11-28T09:21:05;43.67;;;12.50;;
66189;SDS011;52992;52.084;5.412;2022-11-28T09:23:37;32.27;;;12.67;;
66189;SDS011;52992;52.084;5.412;2022-11-28T09:26:06;43.63;;;12.87;;
66189;SDS011;52992;52.084;5.412;2022-11-28T09:28:34;33.57;;;12.63;;
66189;SDS011;52992;52.084;5.412;2022-11-28T09:31:02;47.20;;;14.00;;
66189;SDS011;52992;52.084;5.412;2022-11-28T09:33:30;57.20;;;15.07;;
66189;SDS011;52992;52.084;5.412;2022-11-28T09:35:57;46.13;;;14.77;;
66189;SDS011;52992;52.084;5.412;2022-11-28T09:38:24;46.30;;;15.43;;
66189;SDS011;52992;52.084;5.412;2022-11-28T09:40:51;38.40;;;13.27;;
66189;SDS011;52992;52.084;5.412;2022-11-28T09:43:37;43.63;;;15.17;;
66189;SDS011;52992;52.084;5.412;2022-11-28T09:46:11;49.27;;;16.20;;
66189;SDS011;52992;52.084;5.412;2022-11-28T09:48:51;65.77;;;17.97;;
66189;SDS011;52992;52.084;5.412;2022-11-28T09:54:01;59.70;;;17.70;;
66189;SDS011;52992;52.084;5.412;2022-11-28T09:56:49;52.43;;;17.40;;
66189;SDS011;52992;52.084;5.412;2022-11-28T09:59:22;77.87;;;19.60;;
66189;SDS011;52992;52.084;5.412;2022-11-28T10:04:39;90.40;;;20.70;;
66189;SDS011;52992;52.084;5.412;2022-11-28T10:07:10;73.27;;;18.50;;
66189;SDS011;52992;52.084;5.412;2022-11-28T10:09:46;70.03;;;19.33;;
66189;SDS011;52992;52.084;5.412;2022-11-28T10:12:25;77.10;;;20.40;;
66189;SDS011;52992;52.084;5.412;2022-11-28T10:20:21;106.17;;;22.90;;
66189;SDS011;52992;52.084;5.412;2022-11-28T10:22:54;80.83;;;22.13;;
66189;SDS011;52992;52.084;5.412;2022-11-28T10:25:43;107.23;;;22.20;;
66189;SDS011;52992;52.084;5.412;2022-11-28T10:28:20;102.33;;;23.17;;
66189;SDS011;52992;52.084;5.412;2022-11-28T10:30:56;125.20;;;25.27;;
66189;SDS011;52992;52.084;5.412;2022-11-28T10:33:51;76.90;;;20.00;;
66189;SDS011;52992;52.084;5.412;2022-11-28T10:36:30;89.83;;;24.83;;
66189;SDS011;52992;52.084;5.412;2022-11-28T10:39:08;102.03;;;25.17;;
66189;SDS011;52992;52.084;5.412;2022-11-28T10:41:51;104.90;;;22.47;;
66189;SDS011;52992;52.084;5.412;2022-11-28T10:50:05;84.47;;;22.10;;
66189;SDS011;52992;52.084;5.412;2022-11-28T10:53:03;97.50;;;23.07;;
66189;SDS011;52992;52.084;5.412;2022-11-28T10:55:47;89.83;;;22.17;;
66189;SDS011;52992;52.084;5.412;2022-11-28T10:58:49;77.70;;;22.40;;
66189;SDS011;52992;52.084;5.412;2022-11-28T11:01:21;108.97;;;21.70;;
66189;SDS011;52992;52.084;5.412;2022-11-28T11:03:50;130.03;;;24.47;;
66189;SDS011;52992;52.084;5.412;2022-11-28T11:06:17;117.83;;;25.47;;
66189;SDS011;52992;52.084;5.412;2022-11-28T11:08:44;83.13;;;23.13;;
66189;SDS011;52992;52.084;5.412;2022-11-28T11:13:58;83.40;;;23.20;;
66189;SDS011;52992;52.084;5.412;2022-11-28T11:16:50;122.40;;;24.90;;
66189;SDS011;52992;52.084;5.412;2022-11-28T11:25:09;90.90;;;24.27;;
66189;SDS011;52992;52.084;5.412;2022-11-28T11:27:57;75.13;;;21.93;;
66189;SDS011;52992;52.084;5.412;2022-11-28T11:30:31;93.33;;;23.23;;
66189;SDS011;52992;52.084;5.412;2022-11-28T11:33:00;87.13;;;23.90;;
66189;SDS011;52992;52.084;5.412;2022-11-28T11:35:30;92.97;;;23.00;;
66189;SDS011;52992;52.084;5.412;2022-11-28T11:40:43;79.10;;;21.17;;
66189;SDS011;52992;52.084;5.412;2022-11-28T11:43:32;90.03;;;21.93;;
66189;SDS011;52992;52.084;5.412;2022-11-28T11:46:05;66.47;;;20.20;;
66189;SDS011;52992;52.084;5.412;2022-11-28T11:48:43;110.73;;;23.53;;
66189;SDS011;52992;52.084;5.412;2022-11-28T11:51:23;97.60;;;23.67;;
66189;SDS011;52992;52.084;5.412;2022-11-28T11:54:02;83.47;;;21.60;;
66189;SDS011;52992;52.084;5.412;2022-11-28T11:56:37;104.90;;;23.50;;
66189;SDS011;52992;52.084;5.412;2022-11-28T11:59:12;83.40;;;22.87;;
66189;SDS011;52992;52.084;5.412;2022-11-28T12:01:45;102.97;;;23.73;;
66189;SDS011;52992;52.084;5.412;2022-11-28T12:04:18;82.10;;;22.50;;
66189;SDS011;52992;52.084;5.412;2022-11-28T12:07:19;85.37;;;22.23;;
66189;SDS011;52992;52.084;5.412;2022-11-28T12:09:51;68.33;;;20.30;;
66189;SDS011;52992;52.084;5.412;2022-11-28T12:12:24;87.97;;;22.33;;
66189;SDS011;52992;52.084;5.412;2022-11-28T12:14:54;63.13;;;20.10;;
66189;SDS011;52992;52.084;5.412;2022-11-28T12:20:21;71.90;;;20.67;;
66189;SDS011;52992;52.084;5.412;2022-11-28T12:25:48;88.47;;;22.53;;
66189;SDS011;52992;52.084;5.412;2022-11-28T12:28:35;69.40;;;21.13;;
66189;SDS011;52992;52.084;5.412;2022-11-28T12:34:08;99.17;;;23.70;;
66189;SDS011;52992;52.084;5.412;2022-11-28T12:45:16;87.30;;;22.33;;
66189;SDS011;52992;52.084;5.412;2022-11-28T12:50:34;75.87;;;23.43;;
66189;SDS011;52992;52.084;5.412;2022-11-28T13:06:43;69.83;;;21.77;;
66189;SDS011;52992;52.084;5.412;2022-11-28T13:09:29;94.93;;;23.70;;
66189;SDS011;52992;52.084;5.412;2022-11-28T13:25:55;86.13;;;23.63;;
66189;SDS011;52992;52.084;5.412;2022-11-28T13:28:51;93.90;;;26.43;;
66189;SDS011;52992;52.084;5.412;2022-11-28T13:31:31;82.77;;;23.23;;
66189;SDS011;52992;52.084;5.412;2022-11-28T13:34:03;93.47;;;24.10;;
66189;SDS011;52992;52.084;5.412;2022-11-28T13:36:37;93.27;;;23.03;;
66189;SDS011;52992;52.084;5.412;2022-11-28T13:39:36;71.67;;;21.23;;
66189;SDS011;52992;52.084;5.412;2022-11-28T13:42:17;122.80;;;25.43;;
66189;SDS011;52992;52.084;5.412;2022-11-28T13:45:25;93.70;;;23.70;;
66189;SDS011;52992;52.084;5.412;2022-11-28T13:47:57;76.30;;;22.50;;
66189;SDS011;52992;52.084;5.412;2022-11-28T13:55:42;84.57;;;23.77;;
66189;SDS011;52992;52.084;5.412;2022-11-28T13:58:25;94.23;;;23.00;;
66189;SDS011;52992;52.084;5.412;2022-11-28T14:01:13;101.23;;;24.27;;
66189;SDS011;52992;52.084;5.412;2022-11-28T14:06:40;81.80;;;21.77;;
66189;SDS011;52992;52.084;5.412;2022-11-28T14:23:13;98.03;;;20.90;;
66189;SDS011;52992;52.084;5.412;2022-11-28T14:25:52;75.77;;;20.90;;
66189;SDS011;52992;52.084;5.412;2022-11-28T14:28:26;77.40;;;22.40;;
66189;SDS011;52992;52.084;5.412;2022-11-28T14:33:59;96.37;;;23.77;;
66189;SDS011;52992;52.084;5.412;2022-11-28T14:36:44;89.60;;;23.67;;
66189;SDS011;52992;52.084;5.412;2022-11-28T14:47:16;66.83;;;21.37;;
66189;SDS011;52992;52.084;5.412;2022-11-28T14:49:47;81.90;;;22.50;;
66189;SDS011;52992;52.084;5.412;2022-11-28T14:52:19;71.60;;;22.03;;
66189;SDS011;52992;52.084;5.412;2022-11-28T14:57:34;83.53;;;31.00;;
66189;SDS011;52992;52.084;5.412;2022-11-28T15:00:21;80.17;;;26.23;;
66189;SDS011;52992;52.084;5.412;2022-11-28T15:05:50;77.30;;;24.80;;
66189;SDS011;52992;52.084;5.412;2022-11-28T15:16:27;72.83;;;21.30;;
66189;SDS011;52992;52.084;5.412;2022-11-28T15:18:57;104.00;;;26.10;;
66189;SDS011;52992;52.084;5.412;2022-11-28T15:21:35;85.13;;;24.63;;
66189;SDS011;52992;52.084;5.412;2022-11-28T15:24:13;77.77;;;22.57;;
66189;SDS011;52992;52.084;5.412;2022-11-28T15:26:42;103.47;;;25.83;;
66189;SDS011;52992;52.084;5.412;2022-11-28T15:29:21;88.27;;;25.53;;
66189;SDS011;52992;52.084;5.412;2022-11-28T15:31:51;88.53;;;22.80;;
66189;SDS011;52992;52.084;5.412;2022-11-28T15:34:28;65.63;;;22.03;;
66189;SDS011;52992;52.084;5.412;2022-11-28T15:37:02;70.17;;;21.23;;
66189;SDS011;52992;52.084;5.412;2022-11-28T15:42:07;64.97;;;23.00;;
66189;SDS011;52992;52.084;5.412;2022-11-28T15:44:45;94.93;;;24.67;;
66189;SDS011;52992;52.084;5.412;2022-11-28T15:47:17;96.67;;;27.13;;
66189;SDS011;52992;52.084;5.412;2022-11-28T15:49:56;82.23;;;23.43;;
66189;SDS011;52992;52.084;5.412;2022-11-28T15:52:51;94.23;;;26.47;;
66189;SDS011;52992;52.084;5.412;2022-11-28T15:55:38;87.77;;;28.43;;
66189;SDS011;52992;52.084;5.412;2022-11-28T16:00:57;81.10;;;25.40;;
66189;SDS011;52992;52.084;5.412;2022-11-28T16:03:30;68.93;;;23.70;;
66189;SDS011;52992;52.084;5.412;2022-11-28T16:06:01;81.17;;;24.77;;
66189;SDS011;52992;52.084;5.412;2022-11-28T16:08:31;95.37;;;26.13;;
66189;SDS011;52992;52.084;5.412;2022-11-28T16:11:02;107.17;;;23.57;;
66189;SDS011;52992;52.084;5.412;2022-11-28T16:13:31;107.03;;;27.60;;
66189;SDS011;52992;52.084;5.412;2022-11-28T16:16:01;79.07;;;23.87;;
66189;SDS011;52992;52.084;5.412;2022-11-28T16:18:44;81.93;;;25.00;;
66189;SDS011;52992;52.084;5.412;2022-11-28T16:21:16;95.50;;;27.27;;
66189;SDS011;52992;52.084;5.412;2022-11-28T16:23:43;90.80;;;26.07;;
66189;SDS011;52992;52.084;5.412;2022-11-28T16:31:34;95.40;;;27.07;;
66189;SDS011;52992;52.084;5.412;2022-11-28T16:34:01;85.83;;;27.37;;
66189;SDS011;52992;52.084;5.412;2022-11-28T16:39:03;103.73;;;30.10;;
66189;SDS011;52992;52.084;5.412;2022-11-28T16:41:42;92.63;;;29.10;;
66189;SDS011;52992;52.084;5.412;2022-11-28T16:44:21;107.50;;;28.83;;
66189;SDS011;52992;52.084;5.412;2022-11-28T16:46:50;95.93;;;28.57;;
66189;SDS011;52992;52.084;5.412;2022-11-28T16:54:53;87.00;;;26.27;;
66189;SDS011;52992;52.084;5.412;2022-11-28T16:57:20;89.03;;;25.90;;
66189;SDS011;52992;52.084;5.412;2022-11-28T16:59:48;90.43;;;24.93;;
66189;SDS011;52992;52.084;5.412;2022-11-28T17:02:20;100.83;;;26.10;;
66189;SDS011;52992;52.084;5.412;2022-11-28T17:04:49;72.30;;;26.23;;
66189;SDS011;52992;52.084;5.412;2022-11-28T17:07:21;87.73;;;27.90;;
66189;SDS011;52992;52.084;5.412;2022-11-28T17:09:49;102.50;;;30.27;;
66189;SDS011;52992;52.084;5.412;2022-11-28T17:12:26;97.50;;;27.83;;
66189;SDS011;52992;52.084;5.412;2022-11-28T17:14:55;99.13;;;27.50;;
66189;SDS011;52992;52.084;5.412;2022-11-28T17:17:23;104.17;;;25.93;;
66189;SDS011;52992;52.084;5.412;2022-11-28T17:19:50;119.93;;;27.47;;
66189;SDS011;52992;52.084;5.412;2022-11-28T17:22:21;92.43;;;29.63;;
66189;SDS011;52992;52.084;5.412;2022-11-28T17:24:58;94.67;;;29.10;;
66189;SDS011;52992;52.084;5.412;2022-11-28T17:27:26;93.37;;;27.73;;
66189;SDS011;52992;52.084;5.412;2022-11-28T17:29:53;78.33;;;27.13;;
66189;SDS011;52992;52.084;5.412;2022-11-28T17:32:20;98.87;;;27.27;;
66189;SDS011;52992;52.084;5.412;2022-11-28T17:34:47;80.67;;;26.37;;
66189;SDS011;52992;52.084;5.412;2022-11-28T17:37:13;95.87;;;26.57;;
66189;SDS011;52992;52.084;5.412;2022-11-28T17:39:41;103.23;;;28.57;;
66189;SDS011;52992;52.084;5.412;2022-11-28T17:42:29;85.77;;;25.73;;
66189;SDS011;52992;52.084;5.412;2022-11-28T17:44:56;94.53;;;26.77;;
66189;SDS011;52992;52.084;5.412;2022-11-28T17:47:24;125.23;;;30.60;;
66189;SDS011;52992;52.084;5.412;2022-11-28T17:49:51;87.20;;;28.17;;
66189;SDS011;52992;52.084;5.412;2022-11-28T17:52:19;110.47;;;32.47;;
66189;SDS011;52992;52.084;5.412;2022-11-28T17:54:46;78.67;;;27.00;;
66189;SDS011;52992;52.084;5.412;2022-11-28T17:57:13;147.27;;;31.83;;
66189;SDS011;52992;52.084;5.412;2022-11-28T17:59:40;98.30;;;28.67;;